« Back
NWS Peachtree City, Ga » Text Product » ATL Terminal Aerodrome Forecast


Printer-friendly Version
Current Version              Previous Versions:   1  2  3  4  5  6  7  8  9  

Terminal Aerodrome Forecast

904
FTUS42 KFFC 302300
TAFATL
TAF
KATL 302320Z 3100/0106 15004KT P6SM VCSH SCT040 BKN100
     FM310300 VRB03KT P6SM FEW040 BKN100
     FM311400 23005KT P6SM SCT025 SCT250
     FM311800 24007KT P6SM SCT050 SCT150 PROB30 3120/3124 6SM TSRA
      BKN040CB
     FM010000 25004KT P6SM FEW050 SCT250=

USA.gov is the U.S. government's official web portal to all federal, state and local government web resources and services.